createdAt,value
2022-11-05T00:00:19.581Z,99651.44
2022-11-05T00:03:04.789Z,99657.88
2022-11-05T00:05:50.586Z,99664.13
2022-11-05T00:08:36.003Z,99669.59
2022-11-05T00:11:02.742Z,99658.28
2022-11-05T00:13:47.951Z,99667.81
2022-11-05T00:16:46.930Z,99665.50
2022-11-05T00:19:15.026Z,99672.03
2022-11-05T00:22:00.083Z,99671.28
2022-11-05T00:24:45.586Z,99682.69
2022-11-05T00:27:12.208Z,99671.72
2022-11-05T00:29:38.780Z,99672.97
2022-11-05T00:32:05.476Z,99676.25
2022-11-05T00:34:32.110Z,99679.66
2022-11-05T00:36:58.760Z,99684.50
2022-11-05T00:39:25.390Z,99677.09
2022-11-05T00:42:12.003Z,99673.72
2022-11-05T00:44:57.171Z,99682.38
2022-11-05T00:47:42.783Z,99696.22
2022-11-05T00:50:10.872Z,99697.06
2022-11-05T00:52:56.323Z,99702.56
2022-11-05T00:55:24.526Z,99697.38
2022-11-05T00:57:51.574Z,99697.47
2022-11-05T01:00:18.610Z,99709.81
2022-11-05T01:02:45.696Z,99706.22
2022-11-05T01:05:13.597Z,99715.84
2022-11-05T01:07:40.419Z,99706.97
2022-11-05T01:10:07.332Z,99715.53
2022-11-05T01:12:34.052Z,99712.97
2022-11-05T01:15:00.832Z,99706.88
2022-11-05T01:17:27.553Z,99711.09
2022-11-05T01:19:54.065Z,99709.00
2022-11-05T01:22:20.546Z,99707.41
2022-11-05T01:24:46.985Z,99704.31
2022-11-05T01:27:13.558Z,99711.97
2022-11-05T01:29:40.205Z,99710.69
2022-11-05T01:32:06.742Z,99722.19
2022-11-05T01:34:33.308Z,99724.94
2022-11-05T01:36:59.886Z,99728.06
2022-11-05T01:39:26.410Z,99738.94
2022-11-05T01:41:52.945Z,99742.31
2022-11-05T01:44:48.033Z,99750.34
2022-11-05T01:47:29.728Z,99746.09
2022-11-05T01:50:00.419Z,99759.41
2022-11-05T01:52:29.557Z,99764.56
2022-11-05T01:54:56.716Z,99763.94
2022-11-05T01:57:23.643Z,99764.03
2022-11-05T01:59:55.421Z,99767.06
2022-11-05T02:02:25.262Z,99773.94
2022-11-05T02:04:57.608Z,99771.94
2022-11-05T02:07:26.824Z,99771.72
2022-11-05T02:10:09.280Z,99765.66
2022-11-05T02:12:38.678Z,99773.41
2022-11-05T02:15:06.853Z,99765.28
2022-11-05T02:17:54.937Z,99762.09
2022-11-05T02:20:32.546Z,99771.41
2022-11-05T02:23:17.274Z,99774.25
2022-11-05T02:25:55.901Z,99775.34
2022-11-05T02:28:34.597Z,99781.66
2022-11-05T02:31:10.194Z,99790.66
2022-11-05T02:34:02.355Z,99796.88
2022-11-05T02:36:43.326Z,99794.91
2022-11-05T02:39:25.478Z,99802.69
2022-11-05T02:42:02.039Z,99799.97
2022-11-05T02:44:56.751Z,99796.41
2022-11-05T02:47:45.592Z,99791.81
2022-11-05T02:50:24.297Z,99792.88
2022-11-05T02:53:02.188Z,99796.78
2022-11-05T02:55:28.631Z,99802.47
2022-11-05T02:57:55.326Z,99803.00
2022-11-05T03:00:40.142Z,99805.63
2022-11-05T03:03:30.771Z,99812.72
2022-11-05T03:06:23.494Z,99813.03
2022-11-05T03:09:20.598Z,99818.97
2022-11-05T03:12:13.036Z,99830.66
2022-11-05T03:15:11.390Z,99840.06
2022-11-05T03:18:08.446Z,99828.09
2022-11-05T03:20:47.394Z,99832.25
2022-11-05T03:23:16.884Z,99830.44
2022-11-05T03:25:49.399Z,99835.34
2022-11-05T03:28:21.146Z,99834.22
2022-11-05T03:30:50.075Z,99836.56
2022-11-05T03:33:22.203Z,99839.94
2022-11-05T03:35:54.010Z,99834.47
2022-11-05T03:38:27.027Z,99840.25
2022-11-05T03:40:57.077Z,99845.53
2022-11-05T03:43:30.446Z,99844.16
2022-11-05T03:46:09.683Z,99845.03
2022-11-05T03:48:41.655Z,99847.56
2022-11-05T03:51:18.837Z,99861.88
2022-11-05T03:53:51.942Z,99856.53
2022-11-05T03:56:25.024Z,99858.03
2022-11-05T03:58:58.723Z,99871.91
2022-11-05T04:01:26.552Z,99874.06
2022-11-05T04:03:53.398Z,99878.38
2022-11-05T04:06:38.565Z,99880.09
2022-11-05T04:09:23.303Z,99878.59
2022-11-05T04:12:08.127Z,99877.72
2022-11-05T04:14:34.834Z,99889.44
2022-11-05T04:17:07.335Z,99894.66
2022-11-05T04:20:00.112Z,99896.38
2022-11-05T04:22:47.219Z,99900.91
2022-11-05T04:25:14.837Z,99904.38
2022-11-05T04:27:41.456Z,99908.06
2022-11-05T04:30:20.851Z,99909.75
2022-11-05T04:33:06.892Z,99918.25
2022-11-05T04:35:36.549Z,99921.75
2022-11-05T04:38:04.028Z,99923.44
2022-11-05T04:40:30.789Z,99927.22
2022-11-05T04:42:58.423Z,99927.75
2022-11-05T04:45:27.089Z,99932.88
2022-11-05T04:47:53.699Z,99934.84
2022-11-05T04:50:22.366Z,99929.78
2022-11-05T04:52:49.019Z,99932.59
2022-11-05T04:55:15.567Z,99943.44
2022-11-05T04:57:42.069Z,99932.34
2022-11-05T05:00:09.775Z,99930.03
2022-11-05T05:02:36.746Z,99929.56
2022-11-05T05:05:04.018Z,99937.41
2022-11-05T05:07:30.722Z,99937.78
2022-11-05T05:09:57.252Z,99939.66
2022-11-05T05:12:23.822Z,99950.59
2022-11-05T05:14:50.386Z,99946.63
2022-11-05T05:17:17.006Z,99944.56
2022-11-05T05:20:02.207Z,99949.72
2022-11-05T05:22:28.872Z,99955.03
2022-11-05T05:24:56.680Z,99950.69
2022-11-05T05:27:24.458Z,99959.84
2022-11-05T05:29:50.999Z,99968.50
2022-11-05T05:32:17.465Z,99972.94
2022-11-05T05:34:44.395Z,99978.22
2022-11-05T05:37:10.911Z,99984.13
2022-11-05T05:39:37.456Z,99976.84
2022-11-05T05:42:04.159Z,99976.31
2022-11-05T05:44:30.720Z,99981.56
2022-11-05T05:46:57.310Z,99987.06
2022-11-05T05:49:23.940Z,99991.41
2022-11-05T05:51:50.451Z,99989.97
2022-11-05T05:54:17.276Z,99997.69
2022-11-05T05:56:44.468Z,99995.72
2022-11-05T05:59:11.842Z,99998.66
2022-11-05T06:01:38.530Z,99998.47
2022-11-05T06:04:05.569Z,100006.56
2022-11-05T06:06:32.159Z,100009.88
2022-11-05T06:08:58.919Z,100006.19
2022-11-05T06:11:25.791Z,100007.47
2022-11-05T06:13:52.359Z,100005.91
2022-11-05T06:16:21.418Z,100003.84
2022-11-05T06:18:47.953Z,100015.16
2022-11-05T06:21:16.804Z,100019.75
2022-11-05T06:23:45.250Z,100016.63
2022-11-05T06:26:17.413Z,100025.97
2022-11-05T06:28:44.424Z,100029.44
2022-11-05T06:31:12.469Z,100035.09
2022-11-05T06:33:40.095Z,100039.72
2022-11-05T06:36:08.701Z,100046.25
2022-11-05T06:38:36.832Z,100051.69
2022-11-05T06:41:09.009Z,100060.81
2022-11-05T06:43:37.288Z,100055.38
2022-11-05T06:46:04.459Z,100068.19
2022-11-05T06:48:31.082Z,100070.84
2022-11-05T06:50:57.900Z,100077.16
2022-11-05T06:53:24.644Z,100077.81
2022-11-05T06:55:51.187Z,100086.69
2022-11-05T06:58:17.685Z,100089.13
2022-11-05T07:00:45.050Z,100098.63
2022-11-05T07:03:12.766Z,100094.75
2022-11-05T07:05:43.999Z,100096.16
2022-11-05T07:08:10.517Z,100094.88
2022-11-05T07:10:37.106Z,100108.63
2022-11-05T07:13:08.079Z,100109.00
2022-11-05T07:15:35.618Z,100119.75
2022-11-05T07:18:02.241Z,100121.16
2022-11-05T07:20:33.455Z,100120.31
2022-11-05T07:23:10.443Z,100132.09
2022-11-05T07:25:37.594Z,100137.38
2022-11-05T07:28:04.873Z,100137.38
2022-11-05T07:30:32.890Z,100145.75
2022-11-05T07:32:59.650Z,100151.44
2022-11-05T07:35:26.472Z,100157.16
2022-11-05T07:37:54.545Z,100157.56
2022-11-05T07:40:22.817Z,100167.66
2022-11-05T07:42:51.617Z,100176.81
2022-11-05T07:45:18.575Z,100169.72
2022-11-05T07:47:49.704Z,100173.69
2022-11-05T07:50:20.896Z,100172.00
2022-11-05T07:52:48.739Z,100175.94
2022-11-05T07:55:16.114Z,100170.09
2022-11-05T07:57:50.884Z,100185.84
2022-11-05T08:00:20.723Z,100190.94
2022-11-05T08:03:08.165Z,100184.81
2022-11-05T08:05:40.530Z,100184.91
2022-11-05T08:08:09.181Z,100189.22
2022-11-05T08:10:36.911Z,100188.59
2022-11-05T08:13:04.304Z,100205.25
2022-11-05T08:15:31.389Z,100196.19
2022-11-05T08:18:03.264Z,100197.69
2022-11-05T08:20:30.892Z,100204.09
2022-11-05T08:22:57.851Z,100200.41
2022-11-05T08:25:24.895Z,100206.28
2022-11-05T08:27:58.511Z,100203.97
2022-11-05T08:30:25.567Z,100210.97
2022-11-05T08:32:57.472Z,100210.69
2022-11-05T08:35:24.201Z,100210.59
2022-11-05T08:37:50.690Z,100215.81
2022-11-05T08:40:17.310Z,100211.41
2022-11-05T08:42:43.891Z,100216.28
2022-11-05T08:45:10.504Z,100222.44
2022-11-05T08:47:36.986Z,100217.16
2022-11-05T08:50:04.736Z,100225.72
2022-11-05T08:52:31.198Z,100230.81
2022-11-05T08:54:57.710Z,100239.00
2022-11-05T08:57:24.189Z,100242.00
2022-11-05T08:59:50.707Z,100247.47
2022-11-05T09:02:17.363Z,100240.66
2022-11-05T09:04:44.704Z,100240.00
2022-11-05T09:07:11.294Z,100241.56
2022-11-05T09:09:37.802Z,100240.66
2022-11-05T09:12:13.116Z,100253.75
2022-11-05T09:14:39.818Z,100244.72
2022-11-05T09:20:53.255Z,100248.31
2022-11-05T09:23:20.156Z,100242.53
2022-11-05T09:25:46.911Z,100245.56
2022-11-05T09:28:20.389Z,100247.22
2022-11-05T09:30:51.973Z,100249.66
2022-11-05T09:33:21.924Z,100250.78
2022-11-05T09:35:48.811Z,100251.28
2022-11-05T09:38:15.464Z,100258.06
2022-11-05T09:40:58.282Z,100259.59
2022-11-05T09:43:35.404Z,100258.88
2022-11-05T09:46:20.228Z,100248.75
2022-11-05T09:48:52.289Z,100255.41
2022-11-05T09:51:23.946Z,100264.06
2022-11-05T09:53:51.687Z,100259.78
2022-11-05T09:56:28.545Z,100264.69
2022-11-05T18:38:33.699Z,100579.34
2022-11-05T18:41:06.214Z,100582.13
2022-11-05T18:43:33.084Z,100584.94
2022-11-05T18:45:59.676Z,100580.69
2022-11-05T18:48:26.124Z,100589.56
2022-11-05T18:50:55.437Z,100587.94
2022-11-05T18:53:24.228Z,100585.47
2022-11-05T18:55:50.893Z,100583.59
2022-11-05T18:58:17.325Z,100592.56
2022-11-05T19:00:43.941Z,100593.84
2022-11-05T19:03:10.709Z,100591.63
2022-11-05T19:05:37.242Z,100592.25
2022-11-05T19:08:03.862Z,100592.53
2022-11-05T19:10:30.416Z,100587.38
2022-11-05T19:12:57.039Z,100595.13
2022-11-05T19:15:23.678Z,100586.25
2022-11-05T19:17:50.353Z,100582.25
2022-11-05T19:20:17.032Z,100582.00
2022-11-05T19:22:43.536Z,100582.97
2022-11-05T19:25:10.166Z,100588.09
2022-11-05T19:27:37.628Z,100581.25
2022-11-05T19:30:05.928Z,100588.28
2022-11-05T19:32:32.533Z,100592.59
2022-11-05T19:34:59.130Z,100590.53
2022-11-05T19:37:25.815Z,100588.50
2022-11-05T19:39:52.444Z,100587.41
2022-11-05T19:42:19.035Z,100589.63
2022-11-05T19:44:45.671Z,100594.22
2022-11-05T19:47:12.263Z,100597.97
2022-11-05T19:49:38.999Z,100598.59
2022-11-05T19:52:06.690Z,100596.16
2022-11-05T19:54:35.581Z,100595.59
2022-11-05T19:57:02.181Z,100606.06
2022-11-05T19:59:28.703Z,100604.97
2022-11-05T20:01:55.443Z,100598.91
2022-11-05T20:04:22.123Z,100607.22
2022-11-05T20:06:51.175Z,100601.63
2022-11-05T20:09:22.601Z,100614.66
2022-11-05T20:11:52.464Z,100609.50
2022-11-05T20:14:19.131Z,100605.63
2022-11-05T20:16:46.694Z,100613.53
2022-11-05T20:19:17.076Z,100613.38
2022-11-05T20:21:44.546Z,100613.50
2022-11-05T20:24:13.303Z,100623.66
2022-11-05T20:26:41.012Z,100625.34
2022-11-05T20:29:07.726Z,100629.25
2022-11-05T20:31:34.373Z,100633.19
2022-11-05T20:34:00.980Z,100628.72
2022-11-05T20:36:27.680Z,100637.44
2022-11-05T20:38:56.642Z,100635.53
2022-11-05T20:41:23.746Z,100639.00
2022-11-05T20:43:51.041Z,100636.09
2022-11-05T20:46:19.832Z,100634.25
2022-11-05T20:48:46.802Z,100646.19
2022-11-05T20:51:16.201Z,100654.88
2022-11-05T20:53:43.443Z,100654.94
2022-11-05T20:56:20.347Z,100651.22
2022-11-05T20:58:47.502Z,100648.50
2022-11-05T21:01:16.525Z,100649.91
2022-11-05T21:03:44.544Z,100649.00
2022-11-05T21:06:11.740Z,100641.88
2022-11-05T21:08:38.872Z,100641.09
2022-11-05T21:11:06.900Z,100633.53
2022-11-05T21:13:36.013Z,100634.19
2022-11-05T21:16:06.215Z,100630.38
2022-11-05T21:18:35.315Z,100626.06
2022-11-05T21:21:14.194Z,100633.69
2022-11-05T21:23:41.779Z,100638.16
2022-11-05T21:26:11.006Z,100634.34
2022-11-05T21:28:39.384Z,100635.22
2022-11-05T21:31:07.628Z,100635.44
2022-11-05T21:33:34.666Z,100634.53
2022-11-05T21:36:10.060Z,100640.44
2022-11-05T21:38:36.915Z,100646.72
2022-11-05T21:41:05.749Z,100645.19
2022-11-05T21:43:32.524Z,100648.47
2022-11-05T21:46:03.900Z,100650.31
2022-11-05T21:48:31.334Z,100648.81
2022-11-05T21:51:16.516Z,100649.00
2022-11-05T21:54:01.713Z,100651.72
2022-11-05T21:56:47.013Z,100653.00
2022-11-05T21:59:34.807Z,100649.78
2022-11-05T22:02:02.144Z,100640.44
2022-11-05T22:04:33.986Z,100646.72
2022-11-05T22:07:00.830Z,100652.09
2022-11-05T22:09:27.602Z,100649.63
2022-11-05T22:11:54.759Z,100645.16
2022-11-05T22:14:21.821Z,100651.66
2022-11-05T22:16:48.746Z,100642.22
2022-11-05T22:19:15.348Z,100636.00
2022-11-05T22:21:42.131Z,100631.72
2022-11-05T22:24:11.303Z,100637.94
2022-11-05T22:26:39.137Z,100640.66
2022-11-05T22:29:06.388Z,100634.75
2022-11-05T22:31:36.407Z,100633.31
2022-11-05T22:34:04.866Z,100631.38
2022-11-05T22:36:32.670Z,100636.31
2022-11-05T22:38:59.466Z,100642.63
2022-11-05T22:41:26.172Z,100637.63
2022-11-05T22:43:52.904Z,100635.69
2022-11-05T22:46:22.452Z,100634.00
2022-11-05T22:48:49.988Z,100633.28
2022-11-05T22:51:22.505Z,100631.53
2022-11-05T22:53:49.475Z,100631.38
2022-11-05T22:56:23.919Z,100634.41
2022-11-05T22:58:51.218Z,100632.50
2022-11-05T23:01:19.716Z,100626.44
2022-11-05T23:03:48.164Z,100632.66
2022-11-05T23:06:38.854Z,100637.88
2022-11-05T23:09:54.342Z,100638.72
2022-11-05T23:12:29.963Z,100636.06
2022-11-05T23:14:58.535Z,100640.31
2022-11-05T23:17:44.427Z,100644.63
2022-11-05T23:20:35.790Z,100641.28
2022-11-05T23:23:21.090Z,100641.28
2022-11-05T23:25:48.221Z,100638.75
2022-11-05T23:28:15.095Z,100635.41
2022-11-05T23:31:06.233Z,100638.97
2022-11-05T23:33:34.218Z,100638.00
2022-11-05T23:36:19.476Z,100645.16
2022-11-05T23:38:46.664Z,100646.84
2022-11-05T23:41:31.817Z,100635.66
2022-11-05T23:44:17.209Z,100633.03
2022-11-05T23:47:08.318Z,100634.78
2022-11-05T23:49:36.271Z,100640.09
2022-11-05T23:52:02.894Z,100643.81
2022-11-05T23:54:31.081Z,100641.19
2022-11-05T23:56:57.753Z,100644.69
2022-11-05T23:59:26.607Z,100654.19
